sensor_id;sensor_type;location;lat;lon;timestamp;pressure;altitude;pressure_sealevel;temperature;humidity
75447;BME280;64024;55.820;37.574;2023-03-31T00:00:03;98160.75;;;17.55;44.51
75447;BME280;64024;55.820;37.574;2023-03-31T00:02:36;98160.75;;;17.55;44.22
75447;BME280;64024;55.820;37.574;2023-03-31T00:05:07;98157.25;;;17.54;44.39
75447;BME280;64024;55.820;37.574;2023-03-31T00:07:33;98171.50;;;17.55;44.44
75447;BME280;64024;55.820;37.574;2023-03-31T00:10:03;98174.19;;;17.55;44.51
75447;BME280;64024;55.820;37.574;2023-03-31T00:12:30;98165.03;;;17.56;44.39
75447;BME280;64024;55.820;37.574;2023-03-31T00:14:56;98154.78;;;17.58;44.40
75447;BME280;64024;55.820;37.574;2023-03-31T00:17:22;98158.31;;;17.58;44.33
75447;BME280;64024;55.820;37.574;2023-03-31T00:19:48;98156.94;;;17.61;44.40
75447;BME280;64024;55.820;37.574;2023-03-31T00:22:15;98153.16;;;17.62;44.52
75447;BME280;64024;55.820;37.574;2023-03-31T00:24:47;98157.72;;;17.61;44.29
75447;BME280;64024;55.820;37.574;2023-03-31T00:27:13;98154.22;;;17.61;44.17
75447;BME280;64024;55.820;37.574;2023-03-31T00:29:39;98164.19;;;17.60;44.20
75447;BME280;64024;55.820;37.574;2023-03-31T00:32:07;98152.63;;;17.60;44.17
75447;BME280;64024;55.820;37.574;2023-03-31T00:34:33;98155.63;;;17.58;43.98
75447;BME280;64024;55.820;37.574;2023-03-31T00:36:59;98155.63;;;17.58;43.99
75447;BME280;64024;55.820;37.574;2023-03-31T00:39:28;98154.78;;;17.58;44.27
75447;BME280;64024;55.820;37.574;2023-03-31T00:42:03;98144.03;;;17.58;43.96
75447;BME280;64024;55.820;37.574;2023-03-31T00:44:30;98155.88;;;17.57;43.88
75447;BME280;64024;55.820;37.574;2023-03-31T00:47:00;98168.50;;;17.56;43.84
75447;BME280;64024;55.820;37.574;2023-03-31T00:49:49;98156.69;;;17.57;43.76
75447;BME280;64024;55.820;37.574;2023-03-31T00:52:18;98142.75;;;17.55;43.83
75447;BME280;64024;55.820;37.574;2023-03-31T00:54:49;98121.50;;;17.54;43.74
75447;BME280;64024;55.820;37.574;2023-03-31T00:57:16;98136.03;;;17.53;43.73
75447;BME280;64024;55.820;37.574;2023-03-31T00:59:46;98140.91;;;17.51;43.46
75447;BME280;64024;55.820;37.574;2023-03-31T01:02:13;98133.91;;;17.50;43.56
75447;BME280;64024;55.820;37.574;2023-03-31T01:04:45;98146.25;;;17.51;43.47
75447;BME280;64024;55.820;37.574;2023-03-31T01:07:32;98141.69;;;17.51;43.47
75447;BME280;64024;55.820;37.574;2023-03-31T01:10:01;98127.97;;;17.53;43.29
75447;BME280;64024;55.820;37.574;2023-03-31T01:12:30;98126.38;;;17.52;43.37
75447;BME280;64024;55.820;37.574;2023-03-31T01:14:57;98127.97;;;17.53;43.21
75447;BME280;64024;55.820;37.574;2023-03-31T01:17:24;98111.84;;;17.53;43.26
75447;BME280;64024;55.820;37.574;2023-03-31T01:20:28;98110.53;;;17.50;43.26
75447;BME280;64024;55.820;37.574;2023-03-31T01:45:55;98109.00;;;17.39;42.78
75447;BME280;64024;55.820;37.574;2023-03-31T01:48:15;98124.59;;;17.37;42.61
75447;BME280;64024;55.820;37.574;2023-03-31T01:50:56;98114.94;;;17.36;42.79
75447;BME280;64024;55.820;37.574;2023-03-31T01:53:31;98125.44;;;17.32;42.88
75447;BME280;64024;55.820;37.574;2023-03-31T01:56:09;98140.75;;;17.32;42.92
75447;BME280;64024;55.820;37.574;2023-03-31T01:58:40;98150.69;;;17.31;42.92
75447;BME280;64024;55.820;37.574;2023-03-31T02:03:58;98125.47;;;17.27;42.99
75447;BME280;64024;55.820;37.574;2023-03-31T02:06:31;98115.81;;;17.26;42.93
75447;BME280;64024;55.820;37.574;2023-03-31T02:09:03;98120.66;;;17.24;42.98
75447;BME280;64024;55.820;37.574;2023-03-31T02:11:32;98115.56;;;17.23;43.11
75447;BME280;64024;55.820;37.574;2023-03-31T02:13:59;98111.53;;;17.20;43.24
75447;BME280;64024;55.820;37.574;2023-03-31T02:16:31;98109.94;;;17.19;43.15
75447;BME280;64024;55.820;37.574;2023-03-31T02:19:01;98101.38;;;17.17;43.15
75447;BME280;64024;55.820;37.574;2023-03-31T02:21:35;98119.34;;;17.17;43.00
75447;BME280;64024;55.820;37.574;2023-03-31T02:24:06;98100.84;;;17.15;43.04
75447;BME280;64024;55.820;37.574;2023-03-31T02:26:37;98114.56;;;17.13;43.05
75447;BME280;64024;55.820;37.574;2023-03-31T02:29:04;98104.88;;;17.12;43.03
75447;BME280;64024;55.820;37.574;2023-03-31T02:31:59;98102.19;;;17.12;42.95
75447;BME280;64024;55.820;37.574;2023-03-31T02:34:25;98112.41;;;17.10;42.88
75447;BME280;64024;55.820;37.574;2023-03-31T02:36:51;98108.41;;;17.08;43.14
75447;BME280;64024;55.820;37.574;2023-03-31T02:39:30;98116.44;;;17.08;42.91
75447;BME280;64024;55.820;37.574;2023-03-31T02:41:57;98112.16;;;17.07;42.98
75447;BME280;64024;55.820;37.574;2023-03-31T02:44:23;98111.66;;;17.05;42.97
75447;BME280;64024;55.820;37.574;2023-03-31T02:46:49;98113.81;;;17.03;42.91
75447;BME280;64024;55.820;37.574;2023-03-31T02:49:17;98118.38;;;17.02;42.94
75447;BME280;64024;55.820;37.574;2023-03-31T02:59:53;98102.31;;;16.97;42.73
75447;BME280;64024;55.820;37.574;2023-03-31T03:02:36;98103.41;;;16.96;42.83
75447;BME280;64024;55.820;37.574;2023-03-31T03:05:18;98108.22;;;16.94;42.65
75447;BME280;64024;55.820;37.574;2023-03-31T03:08:00;98115.47;;;16.94;42.91
75447;BME280;64024;55.820;37.574;2023-03-31T03:13:08;98096.16;;;16.92;42.79
75447;BME280;64024;55.820;37.574;2023-03-31T03:15:46;98106.09;;;16.91;43.03
75447;BME280;64024;55.820;37.574;2023-03-31T03:18:14;98099.91;;;16.90;43.11
75447;BME280;64024;55.820;37.574;2023-03-31T03:20:42;98109.06;;;16.89;43.22
75447;BME280;64024;55.820;37.574;2023-03-31T03:23:13;98134.28;;;16.88;43.04
75447;BME280;64024;55.820;37.574;2023-03-31T03:25:39;98119.00;;;16.89;43.39
75447;BME280;64024;55.820;37.574;2023-03-31T03:28:05;98119.78;;;16.89;43.28
75447;BME280;64024;55.820;37.574;2023-03-31T03:30:31;98107.44;;;16.88;43.37
75447;BME280;64024;55.820;37.574;2023-03-31T03:32:57;98099.41;;;16.88;43.53
75447;BME280;64024;55.820;37.574;2023-03-31T03:35:23;98090.56;;;16.88;43.42
75447;BME280;64024;55.820;37.574;2023-03-31T03:37:50;98083.31;;;16.88;43.38
75447;BME280;64024;55.820;37.574;2023-03-31T03:40:16;98094.03;;;16.88;43.38
75447;BME280;64024;55.820;37.574;2023-03-31T03:42:42;98086.78;;;16.89;43.30
75447;BME280;64024;55.820;37.574;2023-03-31T03:45:08;98090.56;;;16.88;43.21
75447;BME280;64024;55.820;37.574;2023-03-31T03:47:35;98072.03;;;16.86;43.34
75447;BME280;64024;55.820;37.574;2023-03-31T03:50:02;98079.00;;;16.87;43.28
75447;BME280;64024;55.820;37.574;2023-03-31T03:52:28;98071.78;;;16.88;43.16
75447;BME280;64024;55.820;37.574;2023-03-31T03:54:54;98071.78;;;16.88;43.17
75447;BME280;64024;55.820;37.574;2023-03-31T03:57:20;98059.16;;;16.88;43.22
75447;BME280;64024;55.820;37.574;2023-03-31T03:59:46;98056.47;;;16.88;43.24
75447;BME280;64024;55.820;37.574;2023-03-31T04:02:13;98044.66;;;16.89;43.37
75447;BME280;64024;55.820;37.574;2023-03-31T04:04:39;98048.41;;;16.88;43.21
75447;BME280;64024;55.820;37.574;2023-03-31T04:07:05;98046.53;;;16.89;43.27
75447;BME280;64024;55.820;37.574;2023-03-31T04:09:30;98033.13;;;16.89;43.33
75447;BME280;64024;55.820;37.574;2023-03-31T04:11:56;98033.13;;;16.89;43.36
75447;BME280;64024;55.820;37.574;2023-03-31T04:14:22;98038.47;;;16.89;43.37
75447;BME280;64024;55.820;37.574;2023-03-31T04:16:50;98041.97;;;16.89;43.12
75447;BME280;64024;55.820;37.574;2023-03-31T04:19:16;98041.16;;;16.89;43.31
75447;BME280;64024;55.820;37.574;2023-03-31T04:21:43;98038.47;;;16.89;43.15
75447;BME280;64024;55.820;37.574;2023-03-31T04:24:15;98036.59;;;16.89;43.24
75447;BME280;64024;55.820;37.574;2023-03-31T04:26:46;98038.47;;;16.89;43.21
75447;BME280;64024;55.820;37.574;2023-03-31T04:29:15;98040.38;;;16.88;43.10
75447;BME280;64024;55.820;37.574;2023-03-31T04:31:42;98027.75;;;16.89;43.21
75447;BME280;64024;55.820;37.574;2023-03-31T04:34:10;98033.13;;;16.89;43.22
75447;BME280;64024;55.820;37.574;2023-03-31T04:36:45;98032.81;;;16.90;43.12
75447;BME280;64024;55.820;37.574;2023-03-31T04:39:16;98033.63;;;16.91;43.06
75447;BME280;64024;55.820;37.574;2023-03-31T04:41:43;98039.00;;;16.91;43.45
75447;BME280;64024;55.820;37.574;2023-03-31T04:44:09;98036.31;;;16.91;43.19
75447;BME280;64024;55.820;37.574;2023-03-31T04:46:35;98027.47;;;16.90;43.14
75447;BME280;64024;55.820;37.574;2023-03-31T04:49:03;98024.50;;;16.92;43.27
75447;BME280;64024;55.820;37.574;2023-03-31T04:51:30;98032.56;;;16.92;43.13
75447;BME280;64024;55.820;37.574;2023-03-31T04:53:57;98020.66;;;17.03;43.39
75447;BME280;64024;55.820;37.574;2023-03-31T04:56:23;98010.75;;;16.99;43.17
75447;BME280;64024;55.820;37.574;2023-03-31T04:58:50;98002.19;;;16.97;42.91
75447;BME280;64024;55.820;37.574;2023-03-31T05:01:16;97997.91;;;16.96;43.25
75447;BME280;64024;55.820;37.574;2023-03-31T05:03:43;98012.41;;;16.95;43.37
75447;BME280;64024;55.820;37.574;2023-03-31T05:06:09;98004.34;;;16.95;42.87
75447;BME280;64024;55.820;37.574;2023-03-31T05:08:35;98015.38;;;16.93;43.20
75447;BME280;64024;55.820;37.574;2023-03-31T05:11:02;98018.84;;;16.94;43.10
75447;BME280;64024;55.820;37.574;2023-03-31T05:13:29;98031.19;;;16.95;43.06
75447;BME280;64024;55.820;37.574;2023-03-31T05:15:55;98008.91;;;16.94;43.01
75447;BME280;64024;55.820;37.574;2023-03-31T05:18:21;98018.56;;;16.95;43.07
75447;BME280;64024;55.820;37.574;2023-03-31T05:20:48;98021.25;;;16.95;43.02
75447;BME280;64024;55.820;37.574;2023-03-31T05:23:14;98029.31;;;16.95;43.00
75447;BME280;64024;55.820;37.574;2023-03-31T05:25:40;98027.16;;;16.97;42.93
75447;BME280;64024;55.820;37.574;2023-03-31T05:28:07;98019.91;;;16.98;42.97
75447;BME280;64024;55.820;37.574;2023-03-31T05:30:34;98018.81;;;16.99;42.92
75447;BME280;64024;55.820;37.574;2023-03-31T05:33:00;98010.47;;;17.00;42.57
75447;BME280;64024;55.820;37.574;2023-03-31T05:35:25;98025.78;;;17.00;42.99
75447;BME280;64024;55.820;37.574;2023-03-31T05:37:51;98011.00;;;17.02;42.83
75447;BME280;64024;55.820;37.574;2023-03-31T05:40:17;98010.22;;;17.02;42.89
75447;BME280;64024;55.820;37.574;2023-03-31T05:42:43;98015.28;;;17.03;43.04
75447;BME280;64024;55.820;37.574;2023-03-31T05:45:09;98008.84;;;17.04;43.13
75447;BME280;64024;55.820;37.574;2023-03-31T05:47:35;98005.09;;;17.05;43.00
75447;BME280;64024;55.820;37.574;2023-03-31T05:50:01;98000.53;;;17.06;42.81
75447;BME280;64024;55.820;37.574;2023-03-31T05:52:32;98019.00;;;17.07;42.93
75447;BME280;64024;55.820;37.574;2023-03-31T05:54:58;98020.63;;;17.08;43.00
75447;BME280;64024;55.820;37.574;2023-03-31T05:57:23;98015.78;;;17.10;42.70
75447;BME280;64024;55.820;37.574;2023-03-31T05:59:49;97999.66;;;17.10;42.80
75447;BME280;64024;55.820;37.574;2023-03-31T06:02:15;98002.88;;;17.12;42.73
75447;BME280;64024;55.820;37.574;2023-03-31T06:04:41;97990.28;;;17.13;42.89
75447;BME280;64024;55.820;37.574;2023-03-31T06:07:08;97981.13;;;17.14;42.71
75447;BME280;64024;55.820;37.574;2023-03-31T06:09:34;97985.13;;;17.17;42.84
75447;BME280;64024;55.820;37.574;2023-03-31T06:12:00;97985.94;;;17.17;42.84
75447;BME280;64024;55.820;37.574;2023-03-31T06:14:26;97989.13;;;17.19;42.97
75447;BME280;64024;55.820;37.574;2023-03-31T06:16:52;97984.28;;;17.21;43.08
75447;BME280;64024;55.820;37.574;2023-03-31T06:19:18;97987.47;;;17.23;43.00
75447;BME280;64024;55.820;37.574;2023-03-31T06:21:45;98004.41;;;17.24;42.88
75447;BME280;64024;55.820;37.574;2023-03-31T06:24:11;97997.66;;;17.26;42.84
75447;BME280;64024;55.820;37.574;2023-03-31T06:26:37;97995.78;;;17.27;42.87
75447;BME280;64024;55.820;37.574;2023-03-31T06:29:03;97992.81;;;17.28;42.69
75447;BME280;64024;55.820;37.574;2023-03-31T06:31:29;98002.19;;;17.31;42.81
75447;BME280;64024;55.820;37.574;2023-03-31T06:33:56;97996.81;;;17.31;42.70
75447;BME280;64024;55.820;37.574;2023-03-31T06:36:22;97999.22;;;17.32;42.74
75447;BME280;64024;55.820;37.574;2023-03-31T06:38:49;98004.31;;;17.34;42.62
75447;BME280;64024;55.820;37.574;2023-03-31T06:41:16;98013.97;;;17.35;42.72
75447;BME280;64024;55.820;37.574;2023-03-31T06:43:43;97994.63;;;17.38;42.60
75447;BME280;64024;55.820;37.574;2023-03-31T06:46:10;98000.00;;;17.38;42.58
75447;BME280;64024;55.820;37.574;2023-03-31T06:48:36;98000.50;;;17.40;42.62
75447;BME280;64024;55.820;37.574;2023-03-31T06:51:04;98001.03;;;17.42;42.56
75447;BME280;64024;55.820;37.574;2023-03-31T06:53:31;97991.09;;;17.43;42.69
75447;BME280;64024;55.820;37.574;2023-03-31T06:55:57;97986.22;;;17.45;42.59
75447;BME280;64024;55.820;37.574;2023-03-31T06:58:23;97979.75;;;17.46;42.54
75447;BME280;64024;55.820;37.574;2023-03-31T07:00:50;97976.00;;;17.47;42.54
75447;BME280;64024;55.820;37.574;2023-03-31T07:03:16;97986.38;;;17.58;42.33
75447;BME280;64024;55.820;37.574;2023-03-31T07:05:54;97983.94;;;17.57;42.34
75447;BME280;64024;55.820;37.574;2023-03-31T07:08:22;97980.75;;;17.55;42.33
75447;BME280;64024;55.820;37.574;2023-03-31T07:10:52;97991.22;;;17.56;42.38
75447;BME280;64024;55.820;37.574;2023-03-31T07:13:18;97987.44;;;17.57;42.41
75447;BME280;64024;55.820;37.574;2023-03-31T07:15:48;97981.00;;;17.58;42.25
75447;BME280;64024;55.820;37.574;2023-03-31T07:18:15;97968.84;;;17.61;42.21
75447;BME280;64024;55.820;37.574;2023-03-31T07:20:42;97970.44;;;17.62;42.15
75447;BME280;64024;55.820;37.574;2023-03-31T07:23:08;97979.84;;;17.64;42.11
75447;BME280;64024;55.820;37.574;2023-03-31T07:25:35;97966.91;;;17.67;42.23
75447;BME280;64024;55.820;37.574;2023-03-31T07:28:02;97970.41;;;17.67;42.19
75447;BME280;64024;55.820;37.574;2023-03-31T07:30:29;97970.13;;;17.69;42.13
75447;BME280;64024;55.820;37.574;2023-03-31T07:32:55;97966.88;;;17.72;42.22
75447;BME280;64024;55.820;37.574;2023-03-31T07:35:21;97971.94;;;17.73;41.92
75447;BME280;64024;55.820;37.574;2023-03-31T07:37:48;97972.50;;;17.75;42.04
75447;BME280;64024;55.820;37.574;2023-03-31T07:40:24;97967.63;;;17.77;41.93
75447;BME280;64024;55.820;37.574;2023-03-31T07:42:51;97970.03;;;17.79;41.98
75447;BME280;64024;55.820;37.574;2023-03-31T07:45:21;97967.06;;;17.80;41.75
75447;BME280;64024;55.820;37.574;2023-03-31T07:47:49;97971.88;;;17.83;42.06
75447;BME280;64024;55.820;37.574;2023-03-31T07:50:16;97963.53;;;17.85;42.17
75447;BME280;64024;55.820;37.574;2023-03-31T07:52:43;97974.78;;;17.87;41.83
75447;BME280;64024;55.820;37.574;2023-03-31T07:55:10;97975.31;;;17.89;41.82
75447;BME280;64024;55.820;37.574;2023-03-31T07:57:37;97971.53;;;17.90;41.89
75447;BME280;64024;55.820;37.574;2023-03-31T08:00:04;97975.53;;;17.93;41.87
75447;BME280;64024;55.820;37.574;2023-03-31T08:02:33;97969.88;;;17.94;41.80
75447;BME280;64024;55.820;37.574;2023-03-31T08:04:59;97969.59;;;17.96;41.72
75447;BME280;64024;55.820;37.574;2023-03-31T08:07:25;97970.91;;;17.98;41.73
75447;BME280;64024;55.820;37.574;2023-03-31T08:09:51;97973.28;;;18.00;41.61
75447;BME280;64024;55.820;37.574;2023-03-31T08:12:17;97963.06;;;18.02;41.40
75447;BME280;64024;55.820;37.574;2023-03-31T08:14:44;97950.41;;;18.02;41.58
75447;BME280;64024;55.820;37.574;2023-03-31T08:17:10;97953.91;;;18.03;41.78
75447;BME280;64024;55.820;37.574;2023-03-31T08:19:36;97944.47;;;18.05;41.65
75447;BME280;64024;55.820;37.574;2023-03-31T08:22:02;97942.00;;;18.09;41.44
75447;BME280;64024;55.820;37.574;2023-03-31T08:24:28;97935.22;;;18.11;41.21
75447;BME280;64024;55.820;37.574;2023-03-31T08:26:54;97944.09;;;18.12;40.92
75447;BME280;64024;55.820;37.574;2023-03-31T08:29:20;97930.66;;;18.12;40.54
75447;BME280;64024;55.820;37.574;2023-03-31T08:31:46;97928.25;;;18.10;40.24
75447;BME280;64024;55.820;37.574;2023-03-31T08:34:13;97925.56;;;18.10;39.83
75447;BME280;64024;55.820;37.574;2023-03-31T08:36:39;97928.56;;;18.09;39.94
75447;BME280;64024;55.820;37.574;2023-03-31T08:39:05;97915.13;;;18.09;39.41
75447;BME280;64024;55.820;37.574;2023-03-31T08:44:28;97922.16;;;18.05;38.27
75447;BME280;64024;55.820;37.574;2023-03-31T08:46:56;97892.13;;;17.98;37.97
75447;BME280;64024;55.820;37.574;2023-03-31T08:49:24;97881.81;;;17.86;37.34
75447;BME280;64024;55.820;37.574;2023-03-31T08:51:55;97870.91;;;17.77;37.15
75447;BME280;64024;55.820;37.574;2023-03-31T08:54:38;97861.25;;;17.76;37.60
75447;BME280;64024;55.820;37.574;2023-03-31T08:57:11;97860.94;;;17.78;38.03
75447;BME280;64024;55.820;37.574;2023-03-31T08:59:40;97863.38;;;17.79;38.24
75447;BME280;64024;55.820;37.574;2023-03-31T09:02:17;97875.94;;;17.84;38.59
75447;BME280;64024;55.820;37.574;2023-03-31T09:04:47;97869.97;;;17.87;38.63
75447;BME280;64024;55.820;37.574;2023-03-31T09:07:45;97867.22;;;17.92;38.89
75447;BME280;64024;55.820;37.574;2023-03-31T09:13:13;97865.50;;;18.01;39.22
75447;BME280;64024;55.820;37.574;2023-03-31T09:16:13;97868.63;;;18.08;39.48
75447;BME280;64024;55.820;37.574;2023-03-31T09:18:41;97861.06;;;18.10;39.51
75447;BME280;64024;55.820;37.574;2023-03-31T09:21:34;97863.66;;;18.16;39.52
75447;BME280;64024;55.820;37.574;2023-03-31T09:24:17;97849.63;;;18.19;39.61
75447;BME280;64024;55.820;37.574;2023-03-31T09:27:15;97852.03;;;18.20;39.64
75447;BME280;64024;55.820;37.574;2023-03-31T09:30:13;97845.81;;;18.25;39.77
75447;BME280;64024;55.820;37.574;2023-03-31T09:32:40;97840.13;;;18.26;39.57
75447;BME280;64024;55.820;37.574;2023-03-31T09:35:19;97829.59;;;18.30;39.89
75447;BME280;64024;55.820;37.574;2023-03-31T09:37:49;97823.91;;;18.31;39.92
75447;BME280;64024;55.820;37.574;2023-03-31T09:40:21;97824.41;;;18.33;39.85
75447;BME280;64024;55.820;37.574;2023-03-31T09:43:03;97825.44;;;18.37;40.12
75447;BME280;64024;55.820;37.574;2023-03-31T09:45:31;97827.81;;;18.39;40.12
75447;BME280;64024;55.820;37.574;2023-03-31T09:48:04;97820.25;;;18.41;40.13
75447;BME280;64024;55.820;37.574;2023-03-31T09:50:38;97808.09;;;18.44;40.10
75447;BME280;64024;55.820;37.574;2023-03-31T09:53:14;97796.75;;;18.47;40.13
75447;BME280;64024;55.820;37.574;2023-03-31T09:55:53;97792.41;;;18.51;40.19
75447;BME280;64024;55.820;37.574;2023-03-31T09:58:21;97797.19;;;18.54;40.27
75447;BME280;64024;55.820;37.574;2023-03-31T10:01:05;97800.06;;;18.57;40.15
75447;BME280;64024;55.820;37.574;2023-03-31T10:06:15;97796.47;;;18.62;40.36
75447;BME280;64024;55.820;37.574;2023-03-31T10:08:43;97793.22;;;18.65;40.37
75447;BME280;64024;55.820;37.574;2023-03-31T10:11:12;97789.94;;;18.68;40.27
75447;BME280;64024;55.820;37.574;2023-03-31T10:18:53;97787.69;;;18.75;40.24
75447;BME280;64024;55.820;37.574;2023-03-31T10:21:24;97780.91;;;18.78;40.33
75447;BME280;64024;55.820;37.574;2023-03-31T10:23:50;97786.28;;;18.78;40.61
75447;BME280;64024;55.820;37.574;2023-03-31T10:26:22;97786.81;;;18.80;40.29
75447;BME280;64024;55.820;37.574;2023-03-31T10:28:50;97778.72;;;18.80;40.41
75447;BME280;64024;55.820;37.574;2023-03-31T10:31:18;97779.53;;;18.80;40.48
75447;BME280;64024;55.820;37.574;2023-03-31T10:33:49;97781.63;;;18.83;40.27
75447;BME280;64024;55.820;37.574;2023-03-31T10:36:26;97777.03;;;18.84;40.42
75447;BME280;64024;55.820;37.574;2023-03-31T10:38:54;97765.16;;;18.85;40.34
75447;BME280;64024;55.820;37.574;2023-03-31T10:41:26;97761.38;;;18.86;40.42
75447;BME280;64024;55.820;37.574;2023-03-31T10:43:55;97754.09;;;18.86;40.31
75447;BME280;64024;55.820;37.574;2023-03-31T10:46:40;97751.91;;;18.88;40.46
75447;BME280;64024;55.820;37.574;2023-03-31T10:49:15;97751.13;;;18.88;40.40
75447;BME280;64024;55.820;37.574;2023-03-31T10:51:58;97742.25;;;18.87;40.22
75447;BME280;64024;55.820;37.574;2023-03-31T10:54:25;97738.25;;;18.85;40.33
75447;BME280;64024;55.820;37.574;2023-03-31T10:56:59;97734.25;;;18.82;40.42
75447;BME280;64024;55.820;37.574;2023-03-31T10:59:40;97725.09;;;18.83;40.34
75447;BME280;64024;55.820;37.574;2023-03-31T11:05:19;97730.28;;;18.80;40.28
75447;BME280;64024;55.820;37.574;2023-03-31T11:13:48;97726.59;;;18.76;40.26
75447;BME280;64024;55.820;37.574;2023-03-31T11:21:35;97724.78;;;18.71;40.66
75447;BME280;64024;55.820;37.574;2023-03-31T11:29:24;97726.16;;;18.69;40.81
75447;BME280;64024;55.820;37.574;2023-03-31T11:42:53;97695.41;;;18.75;41.54
75447;BME280;64024;55.820;37.574;2023-03-31T11:45:32;97692.09;;;18.78;41.39
75447;BME280;64024;55.820;37.574;2023-03-31T11:48:04;97690.50;;;18.77;41.09
75447;BME280;64024;55.820;37.574;2023-03-31T11:50:36;97686.69;;;18.78;41.56
75447;BME280;64024;55.820;37.574;2023-03-31T11:53:15;97688.81;;;18.81;41.70
75447;BME280;64024;55.820;37.574;2023-03-31T11:55:42;97684.53;;;18.80;41.49
75447;BME280;64024;55.820;37.574;2023-03-31T11:58:15;97686.41;;;18.79;41.48
75447;BME280;64024;55.820;37.574;2023-03-31T12:01:06;97676.44;;;18.80;41.53
75447;BME280;64024;55.820;37.574;2023-03-31T12:06:04;97665.47;;;18.76;41.49
75447;BME280;64024;55.820;37.574;2023-03-31T12:08:45;97672.75;;;18.76;41.65
75447;BME280;64024;55.820;37.574;2023-03-31T12:11:37;97671.19;;;18.75;41.64
75447;BME280;64024;55.820;37.574;2023-03-31T12:17:17;97659.91;;;18.73;41.77
75447;BME280;64024;55.820;37.574;2023-03-31T12:19:59;97656.72;;;18.71;41.80
75447;BME280;64024;55.820;37.574;2023-03-31T12:22:30;97658.06;;;18.68;41.88
75447;BME280;64024;55.820;37.574;2023-03-31T12:24:59;97650.31;;;18.67;41.82
75447;BME280;64024;55.820;37.574;2023-03-31T12:27:29;97637.13;;;18.65;42.21
75447;BME280;64024;55.820;37.574;2023-03-31T12:30:43;97641.72;;;18.64;41.94
75447;BME280;64024;55.820;37.574;2023-03-31T12:33:39;97648.69;;;18.66;42.03
75447;BME280;64024;55.820;37.574;2023-03-31T12:36:29;97643.63;;;18.64;41.93
75447;BME280;64024;55.820;37.574;2023-03-31T12:50:24;97630.19;;;18.78;43.02
75447;BME280;64024;55.820;37.574;2023-03-31T12:56:06;97634.47;;;18.93;42.91
75447;BME280;64024;55.820;37.574;2023-03-31T12:58:38;97631.19;;;18.96;43.07
75447;BME280;64024;55.820;37.574;2023-03-31T13:01:21;97629.97;;;19.02;43.17
75447;BME280;64024;55.820;37.574;2023-03-31T13:04:16;97622.88;;;19.06;43.14
75447;BME280;64024;55.820;37.574;2023-03-31T13:06:53;97623.66;;;19.06;43.01
75447;BME280;64024;55.820;37.574;2023-03-31T13:12:10;97621.56;;;19.03;42.59
75447;BME280;64024;55.820;37.574;2023-03-31T13:14:38;97612.22;;;19.01;42.57
75447;BME280;64024;55.820;37.574;2023-03-31T13:17:28;97615.19;;;18.99;42.57
75447;BME280;64024;55.820;37.574;2023-03-31T13:19:56;97615.81;;;18.96;42.72
75447;BME280;64024;55.820;37.574;2023-03-31T13:22:42;97615.31;;;18.94;42.62
75447;BME280;64024;55.820;37.574;2023-03-31T13:25:43;97611.81;;;18.94;42.50
75447;BME280;64024;55.820;37.574;2023-03-31T13:45:44;97599.78;;;18.77;42.75
75447;BME280;64024;55.820;37.574;2023-03-31T13:48:23;97599.78;;;18.77;42.95
75447;BME280;64024;55.820;37.574;2023-03-31T13:56:33;97582.66;;;18.73;42.90
75447;BME280;64024;55.820;37.574;2023-03-31T14:02:26;97596.69;;;18.70;42.80
75447;BME280;64024;55.820;37.574;2023-03-31T14:05:06;97588.22;;;18.77;42.72
75447;BME280;64024;55.820;37.574;2023-03-31T14:07:43;97581.63;;;18.69;42.85
75447;BME280;64024;55.820;37.574;2023-03-31T14:10:34;97587.91;;;18.64;42.71
75447;BME280;64024;55.820;37.574;2023-03-31T14:13:15;97588.50;;;18.61;42.69
75447;BME280;64024;55.820;37.574;2023-03-31T14:15:48;97585.13;;;18.56;42.90
75447;BME280;64024;55.820;37.574;2023-03-31T14:18:22;97579.28;;;18.54;42.78
75447;BME280;64024;55.820;37.574;2023-03-31T14:21:05;97574.47;;;18.51;42.81
75447;BME280;64024;55.820;37.574;2023-03-31T14:29:04;97563.84;;;18.46;42.66
75447;BME280;64024;55.820;37.574;2023-03-31T14:31:47;97558.81;;;18.53;42.75
75447;BME280;64024;55.820;37.574;2023-03-31T14:34:59;97562.22;;;18.45;42.76
75447;BME280;64024;55.820;37.574;2023-03-31T14:37:28;97560.44;;;18.40;42.50
75447;BME280;64024;55.820;37.574;2023-03-31T14:39:56;97553.25;;;18.35;42.61
75447;BME280;64024;55.820;37.574;2023-03-31T14:42:26;97553.84;;;18.32;42.54
75447;BME280;64024;55.820;37.574;2023-03-31T14:45:00;97564.13;;;18.30;42.79
75447;BME280;64024;55.820;37.574;2023-03-31T14:47:27;97557.16;;;18.29;42.75
75447;BME280;64024;55.820;37.574;2023-03-31T14:50:19;97560.94;;;18.28;43.07
75447;BME280;64024;55.820;37.574;2023-03-31T14:52:51;97548.59;;;18.27;42.87
75447;BME280;64024;55.820;37.574;2023-03-31T14:55:22;97552.69;;;18.25;43.07
75447;BME280;64024;55.820;37.574;2023-03-31T14:57:50;97557.56;;;18.23;42.99
75447;BME280;64024;55.820;37.574;2023-03-31T15:00:24;97551.38;;;18.22;43.01
75447;BME280;64024;55.820;37.574;2023-03-31T15:02:52;97553.56;;;18.20;42.99
75447;BME280;64024;55.820;37.574;2023-03-31T15:08:05;97556.88;;;18.17;43.17
75447;BME280;64024;55.820;37.574;2023-03-31T15:10:35;97551.75;;;18.16;43.18
75447;BME280;64024;55.820;37.574;2023-03-31T15:13:16;97547.50;;;18.14;43.22
75447;BME280;64024;55.820;37.574;2023-03-31T15:15:43;97550.50;;;18.13;42.96
75447;BME280;64024;55.820;37.574;2023-03-31T15:18:14;97550.78;;;18.11;43.24
75447;BME280;64024;55.820;37.574;2023-03-31T15:20:42;97552.19;;;18.09;43.21
75447;BME280;64024;55.820;37.574;2023-03-31T15:23:22;97551.88;;;18.10;43.44
75447;BME280;64024;55.820;37.574;2023-03-31T15:26:03;97561.84;;;18.10;43.44
75447;BME280;64024;55.820;37.574;2023-03-31T15:28:38;97557.56;;;18.09;43.50